Rysum — V2JO — position and weather

sailwx.info

Track history (hours):
 
Tides and Currents Weather Stations Pressure Air Temp Water Temp Dewpoint Dewpoint Depression Visibility Wind Speed Wind Dir Waves Ship Positions

Rysum

Last reported at 2018-Feb-08 01:27 UTC. Time now 2018-Feb-23 16:58 UTC.
Position N 50°16' W 001°28'.
Warning: this ship's position is 15 days out of date.

Length 82 m; draft 4.5 m.

Type: Cargo ship. MMSI: 304010168.

Date/timePositionNaut miles runAvg speedWind from/ knotsBaromVisibWave heightAir tempDewpointWater temp
2018-Feb-08 01:27N 50°16' W 001°28'133 8.4
2018-Feb-07 09:30N 51°13' E 001°42'4 8.7
2018-Feb-07 09:00N 51°16' E 001°46'4 8.3
2018-Feb-07 08:30N 51°20' E 001°49'4 7.8
2018-Feb-07 08:00N 51°23' E 001°52'4 7.5
2018-Feb-07 07:30N 51°27' E 001°55'4 7.1
2018-Feb-07 07:01N 51°29' E 001°59'4 6.8
2018-Feb-07 06:28N 51°32' E 002°02'3 6.9
2018-Feb-07 05:59N 51°35' E 002°05'4 7.3
2018-Feb-07 05:29N 51°37' E 002°10'4 7.3
2018-Feb-07 05:00N 51°40' E 002°14'4 7.6
2018-Feb-07 04:27N 51°43' E 002°19'4 8.1
2018-Feb-07 03:56N 51°46' E 002°23'69 8.9
2018-Feb-06 20:13N 52°40' E 003°33'2 7.3
2018-Feb-06 20:00N 52°41' E 003°35'4 7.1
2018-Feb-06 19:29N 52°43' E 003°39'3 6.7
2018-Feb-06 18:58N 52°46' E 003°42'3 7.2
2018-Feb-06 18:30N 52°49' E 003°45'158 7.5
2018-Feb-05 21:28N 53°53' E 007°46'4 8.6
2018-Feb-05 21:00N 53°52' E 007°53'4 9.1
2018-Feb-05 20:30N 53°51' E 008°01'510.0
2018-Feb-05 20:00N 53°49' E 008°08'1111.2
2018-Feb-05 19:00N 53°41' E 008°22'611.4
2018-Feb-05 18:30N 53°37' E 008°29'5 9.9
2018-Feb-05 18:00N 53°33' E 008°33'4 7.1
2018-Feb-05 17:30N 53°30' E 008°31'4 8.4
2018-Feb-05 17:00N 53°26' E 008°30'4 7.2
2018-Feb-05 16:30N 53°22' E 008°30'1 0.9
2018-Feb-05 15:30N 53°21' E 008°30'0 0.0
2018-Feb-05 15:00N 53°21' E 008°30'0 0.0
2018-Feb-05 14:00N 53°21' E 008°30'0 0.0
2018-Feb-05 13:30N 53°21' E 008°30'0 0.0
2018-Feb-05 13:00N 53°21' E 008°30'0 0.0
2018-Feb-05 12:30N 53°21' E 008°30'0 0.0
2018-Feb-05 12:00N 53°21' E 008°30'0 0.0
2018-Feb-05 11:30N 53°21' E 008°30'0 0.0
2018-Feb-05 11:00N 53°21' E 008°30'0 0.0
2018-Feb-05 10:30N 53°21' E 008°30'0 0.0
2018-Feb-05 10:00N 53°21' E 008°30'0 0.0
2018-Feb-05 09:27N 53°21' E 008°30'0 0.0
2018-Feb-05 09:00N 53°21' E 008°30'0 0.0
2018-Feb-05 08:30N 53°21' E 008°30'0 0.0
2018-Feb-05 08:00N 53°21' E 008°30'0 0.0
2018-Feb-05 07:30N 53°21' E 008°30'0 0.0
2018-Feb-05 06:57N 53°21' E 008°30'0 0.0
2018-Feb-05 06:30N 53°21' E 008°30'0 0.0
2018-Feb-05 05:30N 53°21' E 008°30'0 0.0
2018-Feb-05 05:00N 53°21' E 008°30'0 0.0
2018-Feb-05 04:30N 53°21' E 008°30'0 0.0
2018-Feb-05 04:00N 53°21' E 008°30'0 0.0
2018-Feb-05 03:30N 53°21' E 008°30'0 0.0
2018-Feb-05 03:00N 53°21' E 008°30'0 0.0
2018-Feb-05 02:30N 53°21' E 008°30'0 0.0
2018-Feb-05 01:57N 53°21' E 008°30'0 0.0
2018-Feb-05 01:30N 53°21' E 008°30'0 0.0
2018-Feb-05 01:00N 53°21' E 008°30'0 0.0
2018-Feb-05 00:30N 53°21' E 008°30'0 0.0
2018-Feb-04 23:57N 53°21' E 008°30'0 0.0
2018-Feb-04 23:30N 53°21' E 008°30'0 0.0
2018-Feb-04 23:00N 53°21' E 008°30'0 0.0
2018-Feb-04 22:30N 53°21' E 008°30'0 0.0
2018-Feb-04 22:00N 53°21' E 008°30'0 0.0
2018-Feb-04 21:30N 53°21' E 008°30'0 0.0
2018-Feb-04 21:00N 53°21' E 008°30'0 0.0
2018-Feb-04 20:00N 53°21' E 008°30'0 0.0
2018-Feb-04 19:30N 53°21' E 008°30'0 0.0
2018-Feb-04 19:00N 53°21' E 008°30'0 0.0
2018-Feb-04 18:30N 53°21' E 008°30'0 0.0
2018-Feb-04 18:00N 53°21' E 008°30'0 0.0
2018-Feb-04 17:30N 53°21' E 008°30'0 0.0
2018-Feb-04 15:30N 53°21' E 008°30'0 0.0
2018-Feb-04 15:00N 53°21' E 008°30'0 0.0
2018-Feb-04 14:30N 53°21' E 008°30'0 0.0
2018-Feb-04 14:00N 53°21' E 008°30'0 0.0
2018-Feb-04 13:30N 53°21' E 008°30'0 0.0
2018-Feb-04 13:00N 53°21' E 008°30'0 0.0
2018-Feb-04 12:30N 53°21' E 008°30'0 0.0
2018-Feb-04 12:00N 53°21' E 008°30'0 0.0
2018-Feb-04 11:30N 53°21' E 008°30'0 0.0
2018-Feb-04 10:00N 53°21' E 008°30'0 0.0
2018-Feb-04 09:00N 53°21' E 008°30'0 0.0
2018-Feb-04 08:30N 53°21' E 008°30'0 0.0
2018-Feb-04 08:00N 53°21' E 008°30'0 0.0
2018-Feb-04 07:30N 53°21' E 008°30'0 0.0
2018-Feb-04 07:00N 53°21' E 008°30'0 0.0
2018-Feb-04 06:30N 53°21' E 008°30'0 0.0
2018-Feb-04 06:00N 53°21' E 008°30'0 0.0
2018-Feb-04 05:29N 53°21' E 008°30'0 0.0
2018-Feb-04 04:59N 53°21' E 008°30'0 0.0
2018-Feb-04 04:29N 53°21' E 008°30'0 0.0
2018-Feb-04 04:00N 53°21' E 008°30'0 0.0
2018-Feb-04 03:29N 53°21' E 008°30'0 0.0
2018-Feb-04 02:59N 53°21' E 008°30'0 0.0
2018-Feb-04 02:29N 53°21' E 008°30'0 0.0
2018-Feb-04 01:59N 53°21' E 008°30'0 0.0
2018-Feb-04 01:29N 53°21' E 008°30'0 0.0
2018-Feb-04 00:59N 53°21' E 008°30'0 0.0
2018-Feb-04 00:29N 53°21' E 008°30'0 0.0
2018-Feb-03 23:59N 53°21' E 008°30'0 0.0
2018-Feb-03 23:29N 53°21' E 008°30'0 0.0
2018-Feb-03 22:59N 53°21' E 008°30'0 0.0
2018-Feb-03 22:29N 53°21' E 008°30'0 0.0
2018-Feb-03 21:59N 53°21' E 008°30'0 0.0
2018-Feb-03 21:29N 53°21' E 008°30'0 0.0
2018-Feb-03 20:59N 53°21' E 008°30'0 0.0
2018-Feb-03 20:30N 53°21' E 008°30'0 0.4
2018-Feb-03 20:00N 53°21' E 008°30'8 5.0
2018-Feb-03 18:30N 53°29' E 008°30'3 5.3
2018-Feb-03 18:01N 53°31' E 008°32'1 2.1
2018-Feb-03 17:29N 53°31' E 008°34'0 0.0
2018-Feb-03 16:59N 53°31' E 008°34'0 0.0
2018-Feb-03 15:59N 53°31' E 008°34'0 0.1
2018-Feb-03 15:29N 53°31' E 008°34'0 0.1
2018-Feb-03 14:59N 53°31' E 008°34'0 0.1
2018-Feb-03 14:29N 53°31' E 008°34'0 0.0
2018-Feb-03 13:59N 53°31' E 008°34'0 0.0
2018-Feb-03 13:29N 53°31' E 008°34'0 0.0
2018-Feb-03 12:59N 53°31' E 008°34'0 0.0
2018-Feb-03 12:29N 53°31' E 008°34'0 0.0
2018-Feb-03 11:59N 53°31' E 008°34'2 4.4
2018-Feb-03 11:30N 53°33' E 008°33'510.0
2018-Feb-03 11:00N 53°37' E 008°28'611.2
2018-Feb-03 10:30N 53°41' E 008°21'611.1
2018-Feb-03 10:00N 53°44' E 008°13'611.1
2018-Feb-03 09:30N 53°48' E 008°07'5 9.8
2018-Feb-03 09:00N 53°51' E 007°60'53 3.5
2018-Feb-02 17:39N 53°37' E 006°33'1 8.2
2018-Feb-02 17:30N 53°36' E 006°35'5 0.2
2018-Feb-01 11:55N 53°33' E 006°41'0 0.0
2018-Jan-31 23:31N 53°33' E 006°41'0 0.1
2018-Jan-31 22:22N 53°33' E 006°41'0 0.0
2018-Jan-31 20:46N 53°33' E 006°41'0 0.0
2018-Jan-31 16:00N 53°33' E 006°41'0 0.0
2018-Jan-31 11:33N 53°33' E 006°41'0 0.1
2018-Jan-31 11:27N 53°33' E 006°41'  
Track history (hours):
 
Tides and Currents Weather Stations Pressure Air Temp Water Temp Dewpoint Dewpoint Depression Visibility Wind Speed Wind Dir Waves Ship Positions

Rysum

Last reported at 2018-Feb-08 01:27 UTC. Time now 2018-Feb-23 16:58 UTC.
Position N 50°16' W 001°28'.
Warning: this ship's position is 15 days out of date.

Length 82 m; draft 4.5 m.

Type: Cargo ship. MMSI: 304010168.

Date/timePositionNaut miles runAvg speedWind from/ knotsBaromVisibWave heightAir tempDewpointWater temp
2018-Feb-08 01:27N 50°16' W 001°28'133 8.4
2018-Feb-07 09:30N 51°13' E 001°42'4 8.7
2018-Feb-07 09:00N 51°16' E 001°46'4 8.3
2018-Feb-07 08:30N 51°20' E 001°49'4 7.8
2018-Feb-07 08:00N 51°23' E 001°52'4 7.5
2018-Feb-07 07:30N 51°27' E 001°55'4 7.1
2018-Feb-07 07:01N 51°29' E 001°59'4 6.8
2018-Feb-07 06:28N 51°32' E 002°02'3 6.9
2018-Feb-07 05:59N 51°35' E 002°05'4 7.3
2018-Feb-07 05:29N 51°37' E 002°10'4 7.3
2018-Feb-07 05:00N 51°40' E 002°14'4 7.6
2018-Feb-07 04:27N 51°43' E 002°19'4 8.1
2018-Feb-07 03:56N 51°46' E 002°23'69 8.9
2018-Feb-06 20:13N 52°40' E 003°33'2 7.3
2018-Feb-06 20:00N 52°41' E 003°35'4 7.1
2018-Feb-06 19:29N 52°43' E 003°39'3 6.7
2018-Feb-06 18:58N 52°46' E 003°42'3 7.2
2018-Feb-06 18:30N 52°49' E 003°45'158 7.5
2018-Feb-05 21:28N 53°53' E 007°46'4 8.6
2018-Feb-05 21:00N 53°52' E 007°53'4 9.1
2018-Feb-05 20:30N 53°51' E 008°01'510.0
2018-Feb-05 20:00N 53°49' E 008°08'1111.2
2018-Feb-05 19:00N 53°41' E 008°22'611.4
2018-Feb-05 18:30N 53°37' E 008°29'5 9.9
2018-Feb-05 18:00N 53°33' E 008°33'4 7.1
2018-Feb-05 17:30N 53°30' E 008°31'4 8.4
2018-Feb-05 17:00N 53°26' E 008°30'4 7.2
2018-Feb-05 16:30N 53°22' E 008°30'1 0.9
2018-Feb-05 15:30N 53°21' E 008°30'0 0.0
2018-Feb-05 15:00N 53°21' E 008°30'0 0.0
2018-Feb-05 14:00N 53°21' E 008°30'0 0.0
2018-Feb-05 13:30N 53°21' E 008°30'0 0.0
2018-Feb-05 13:00N 53°21' E 008°30'0 0.0
2018-Feb-05 12:30N 53°21' E 008°30'0 0.0
2018-Feb-05 12:00N 53°21' E 008°30'0 0.0
2018-Feb-05 11:30N 53°21' E 008°30'0 0.0
2018-Feb-05 11:00N 53°21' E 008°30'0 0.0
2018-Feb-05 10:30N 53°21' E 008°30'0 0.0
2018-Feb-05 10:00N 53°21' E 008°30'0 0.0
2018-Feb-05 09:27N 53°21' E 008°30'0 0.0
2018-Feb-05 09:00N 53°21' E 008°30'0 0.0
2018-Feb-05 08:30N 53°21' E 008°30'0 0.0
2018-Feb-05 08:00N 53°21' E 008°30'0 0.0
2018-Feb-05 07:30N 53°21' E 008°30'0 0.0
2018-Feb-05 06:57N 53°21' E 008°30'0 0.0
2018-Feb-05 06:30N 53°21' E 008°30'0 0.0
2018-Feb-05 05:30N 53°21' E 008°30'0 0.0
2018-Feb-05 05:00N 53°21' E 008°30'0 0.0
2018-Feb-05 04:30N 53°21' E 008°30'0 0.0
2018-Feb-05 04:00N 53°21' E 008°30'0 0.0
2018-Feb-05 03:30N 53°21' E 008°30'0 0.0
2018-Feb-05 03:00N 53°21' E 008°30'0 0.0
2018-Feb-05 02:30N 53°21' E 008°30'0 0.0
2018-Feb-05 01:57N 53°21' E 008°30'0 0.0
2018-Feb-05 01:30N 53°21' E 008°30'0 0.0
2018-Feb-05 01:00N 53°21' E 008°30'0 0.0
2018-Feb-05 00:30N 53°21' E 008°30'0 0.0
2018-Feb-04 23:57N 53°21' E 008°30'0 0.0
2018-Feb-04 23:30N 53°21' E 008°30'0 0.0
2018-Feb-04 23:00N 53°21' E 008°30'0 0.0
2018-Feb-04 22:30N 53°21' E 008°30'0 0.0
2018-Feb-04 22:00N 53°21' E 008°30'0 0.0
2018-Feb-04 21:30N 53°21' E 008°30'0 0.0
2018-Feb-04 21:00N 53°21' E 008°30'0 0.0
2018-Feb-04 20:00N 53°21' E 008°30'0 0.0
2018-Feb-04 19:30N 53°21' E 008°30'0 0.0
2018-Feb-04 19:00N 53°21' E 008°30'0 0.0
2018-Feb-04 18:30N 53°21' E 008°30'0 0.0
2018-Feb-04 18:00N 53°21' E 008°30'0 0.0
2018-Feb-04 17:30N 53°21' E 008°30'0 0.0
2018-Feb-04 15:30N 53°21' E 008°30'0 0.0
2018-Feb-04 15:00N 53°21' E 008°30'0 0.0
2018-Feb-04 14:30N 53°21' E 008°30'0 0.0
2018-Feb-04 14:00N 53°21' E 008°30'0 0.0
2018-Feb-04 13:30N 53°21' E 008°30'0 0.0
2018-Feb-04 13:00N 53°21' E 008°30'0 0.0
2018-Feb-04 12:30N 53°21' E 008°30'0 0.0
2018-Feb-04 12:00N 53°21' E 008°30'0 0.0
2018-Feb-04 11:30N 53°21' E 008°30'0 0.0
2018-Feb-04 10:00N 53°21' E 008°30'0 0.0
2018-Feb-04 09:00N 53°21' E 008°30'0 0.0
2018-Feb-04 08:30N 53°21' E 008°30'0 0.0
2018-Feb-04 08:00N 53°21' E 008°30'0 0.0
2018-Feb-04 07:30N 53°21' E 008°30'0 0.0
2018-Feb-04 07:00N 53°21' E 008°30'0 0.0
2018-Feb-04 06:30N 53°21' E 008°30'0 0.0
2018-Feb-04 06:00N 53°21' E 008°30'0 0.0
2018-Feb-04 05:29N 53°21' E 008°30'0 0.0
2018-Feb-04 04:59N 53°21' E 008°30'0 0.0
2018-Feb-04 04:29N 53°21' E 008°30'0 0.0
2018-Feb-04 04:00N 53°21' E 008°30'0 0.0
2018-Feb-04 03:29N 53°21' E 008°30'0 0.0
2018-Feb-04 02:59N 53°21' E 008°30'0 0.0
2018-Feb-04 02:29N 53°21' E 008°30'0 0.0
2018-Feb-04 01:59N 53°21' E 008°30'0 0.0
2018-Feb-04 01:29N 53°21' E 008°30'0 0.0
2018-Feb-04 00:59N 53°21' E 008°30'0 0.0
2018-Feb-04 00:29N 53°21' E 008°30'0 0.0
2018-Feb-03 23:59N 53°21' E 008°30'0 0.0
2018-Feb-03 23:29N 53°21' E 008°30'0 0.0
2018-Feb-03 22:59N 53°21' E 008°30'0 0.0
2018-Feb-03 22:29N 53°21' E 008°30'0 0.0
2018-Feb-03 21:59N 53°21' E 008°30'0 0.0
2018-Feb-03 21:29N 53°21' E 008°30'0 0.0
2018-Feb-03 20:59N 53°21' E 008°30'0 0.0
2018-Feb-03 20:30N 53°21' E 008°30'0 0.4
2018-Feb-03 20:00N 53°21' E 008°30'8 5.0
2018-Feb-03 18:30N 53°29' E 008°30'3 5.3
2018-Feb-03 18:01N 53°31' E 008°32'1 2.1
2018-Feb-03 17:29N 53°31' E 008°34'0 0.0
2018-Feb-03 16:59N 53°31' E 008°34'0 0.0
2018-Feb-03 15:59N 53°31' E 008°34'0 0.1
2018-Feb-03 15:29N 53°31' E 008°34'0 0.1
2018-Feb-03 14:59N 53°31' E 008°34'0 0.1
2018-Feb-03 14:29N 53°31' E 008°34'0 0.0
2018-Feb-03 13:59N 53°31' E 008°34'0 0.0
2018-Feb-03 13:29N 53°31' E 008°34'0 0.0
2018-Feb-03 12:59N 53°31' E 008°34'0 0.0
2018-Feb-03 12:29N 53°31' E 008°34'0 0.0
2018-Feb-03 11:59N 53°31' E 008°34'2 4.4
2018-Feb-03 11:30N 53°33' E 008°33'510.0
2018-Feb-03 11:00N 53°37' E 008°28'611.2
2018-Feb-03 10:30N 53°41' E 008°21'611.1
2018-Feb-03 10:00N 53°44' E 008°13'611.1
2018-Feb-03 09:30N 53°48' E 008°07'5 9.8
2018-Feb-03 09:00N 53°51' E 007°60'53 3.5
2018-Feb-02 17:39N 53°37' E 006°33'1 8.2
2018-Feb-02 17:30N 53°36' E 006°35'5 0.2
2018-Feb-01 11:55N 53°33' E 006°41'0 0.0
2018-Jan-31 23:31N 53°33' E 006°41'0 0.1
2018-Jan-31 22:22N 53°33' E 006°41'0 0.0
2018-Jan-31 20:46N 53°33' E 006°41'0 0.0
2018-Jan-31 16:00N 53°33' E 006°41'0 0.0
2018-Jan-31 11:33N 53°33' E 006°41'0 0.1
2018-Jan-31 11:27N 53°33' E 006°41'  

Dump ship's entire track history